sensor_id;sensor_type;location;lat;lon;timestamp;temperature;humidity
78438;SHT31;67736;51.978;5.656;2023-10-09T00:01:51;16.9;72.7
78438;SHT31;67736;51.978;5.656;2023-10-09T00:04:21;16.9;72.7
78438;SHT31;67736;51.978;5.656;2023-10-09T00:06:51;16.9;72.8
78438;SHT31;67736;51.978;5.656;2023-10-09T00:09:21;16.9;72.7
78438;SHT31;67736;51.978;5.656;2023-10-09T00:12:01;16.9;72.7
78438;SHT31;67736;51.978;5.656;2023-10-09T00:14:35;16.9;72.8
78438;SHT31;67736;51.978;5.656;2023-10-09T00:17:06;16.9;73.0
78438;SHT31;67736;51.978;5.656;2023-10-09T00:19:41;16.9;72.6
78438;SHT31;67736;51.978;5.656;2023-10-09T00:22:15;16.9;72.7
78438;SHT31;67736;51.978;5.656;2023-10-09T00:24:55;16.9;72.9
78438;SHT31;67736;51.978;5.656;2023-10-09T00:27:41;16.9;72.7
78438;SHT31;67736;51.978;5.656;2023-10-09T00:30:15;16.9;72.6
78438;SHT31;67736;51.978;5.656;2023-10-09T00:32:46;16.9;72.2
78438;SHT31;67736;51.978;5.656;2023-10-09T00:35:25;17.0;72.3
78438;SHT31;67736;51.978;5.656;2023-10-09T00:38:12;17.0;72.1
78438;SHT31;67736;51.978;5.656;2023-10-09T00:40:51;17.0;72.2
78438;SHT31;67736;51.978;5.656;2023-10-09T00:43:38;17.0;72.2
78438;SHT31;67736;51.978;5.656;2023-10-09T00:46:11;17.0;71.8
78438;SHT31;67736;51.978;5.656;2023-10-09T00:48:47;17.0;71.6
78438;SHT31;67736;51.978;5.656;2023-10-09T00:51:17;17.0;71.6
78438;SHT31;67736;51.978;5.656;2023-10-09T00:53:51;17.0;71.4
78438;SHT31;67736;51.978;5.656;2023-10-09T00:56:22;17.0;71.4
78438;SHT31;67736;51.978;5.656;2023-10-09T00:59:03;17.0;71.5
78438;SHT31;67736;51.978;5.656;2023-10-09T01:01:37;17.0;71.5
78438;SHT31;67736;51.978;5.656;2023-10-09T01:04:13;17.0;71.6
78438;SHT31;67736;51.978;5.656;2023-10-09T01:06:46;17.0;71.7
78438;SHT31;67736;51.978;5.656;2023-10-09T01:09:21;17.0;72.1
78438;SHT31;67736;51.978;5.656;2023-10-09T01:11:51;17.0;72.5
78438;SHT31;67736;51.978;5.656;2023-10-09T01:14:32;17.0;72.6
78438;SHT31;67736;51.978;5.656;2023-10-09T01:17:08;17.0;72.9
78438;SHT31;67736;51.978;5.656;2023-10-09T01:19:41;17.0;73.4
78438;SHT31;67736;51.978;5.656;2023-10-09T01:22:12;17.0;73.4
78438;SHT31;67736;51.978;5.656;2023-10-09T01:24:43;17.0;74.0
78438;SHT31;67736;51.978;5.656;2023-10-09T01:27:15;17.0;73.9
78438;SHT31;67736;51.978;5.656;2023-10-09T01:29:45;17.0;73.8
78438;SHT31;67736;51.978;5.656;2023-10-09T01:32:15;17.1;73.9
78438;SHT31;67736;51.978;5.656;2023-10-09T01:34:47;17.1;74.1
78438;SHT31;67736;51.978;5.656;2023-10-09T01:37:19;17.1;74.1
78438;SHT31;67736;51.978;5.656;2023-10-09T01:39:51;17.1;74.2
78438;SHT31;67736;51.978;5.656;2023-10-09T01:42:22;17.1;74.4
78438;SHT31;67736;51.978;5.656;2023-10-09T01:44:59;17.1;74.2
78438;SHT31;67736;51.978;5.656;2023-10-09T01:47:35;17.2;74.3
78438;SHT31;67736;51.978;5.656;2023-10-09T01:50:06;17.2;74.3
78438;SHT31;67736;51.978;5.656;2023-10-09T01:52:39;17.2;74.4
78438;SHT31;67736;51.978;5.656;2023-10-09T01:55:10;17.2;74.5
78438;SHT31;67736;51.978;5.656;2023-10-09T01:57:41;17.2;74.3
78438;SHT31;67736;51.978;5.656;2023-10-09T02:00:13;17.2;74.4
78438;SHT31;67736;51.978;5.656;2023-10-09T02:02:49;17.2;74.4
78438;SHT31;67736;51.978;5.656;2023-10-09T02:05:19;17.2;74.7
78438;SHT31;67736;51.978;5.656;2023-10-09T02:07:54;17.2;74.6
78438;SHT31;67736;51.978;5.656;2023-10-09T02:10:25;17.2;74.7
78438;SHT31;67736;51.978;5.656;2023-10-09T02:13:00;17.2;74.9
78438;SHT31;67736;51.978;5.656;2023-10-09T02:15:35;17.2;74.9
78438;SHT31;67736;51.978;5.656;2023-10-09T02:18:20;17.2;75.0
78438;SHT31;67736;51.978;5.656;2023-10-09T02:21:07;17.3;74.8
78438;SHT31;67736;51.978;5.656;2023-10-09T02:23:43;17.3;74.6
78438;SHT31;67736;51.978;5.656;2023-10-09T02:26:18;17.3;74.9
78438;SHT31;67736;51.978;5.656;2023-10-09T02:28:54;17.3;74.6
78438;SHT31;67736;51.978;5.656;2023-10-09T02:31:31;17.4;74.6
78438;SHT31;67736;51.978;5.656;2023-10-09T02:34:08;17.4;74.6
78438;SHT31;67736;51.978;5.656;2023-10-09T02:36:38;17.4;74.4
78438;SHT31;67736;51.978;5.656;2023-10-09T02:39:14;17.4;74.5
78438;SHT31;67736;51.978;5.656;2023-10-09T02:41:51;17.4;74.5
78438;SHT31;67736;51.978;5.656;2023-10-09T02:44:25;17.5;74.5
78438;SHT31;67736;51.978;5.656;2023-10-09T02:46:59;17.5;74.6
78438;SHT31;67736;51.978;5.656;2023-10-09T02:49:34;17.5;74.5
78438;SHT31;67736;51.978;5.656;2023-10-09T02:52:05;17.5;74.6
78438;SHT31;67736;51.978;5.656;2023-10-09T02:54:37;17.5;74.6
78438;SHT31;67736;51.978;5.656;2023-10-09T02:57:11;17.5;74.7
78438;SHT31;67736;51.978;5.656;2023-10-09T02:59:49;17.5;74.7
78438;SHT31;67736;51.978;5.656;2023-10-09T03:02:20;17.6;74.6
78438;SHT31;67736;51.978;5.656;2023-10-09T03:04:51;17.6;74.6
78438;SHT31;67736;51.978;5.656;2023-10-09T03:07:22;17.6;74.4
78438;SHT31;67736;51.978;5.656;2023-10-09T03:09:52;17.6;74.3
78438;SHT31;67736;51.978;5.656;2023-10-09T03:12:24;17.7;74.4
78438;SHT31;67736;51.978;5.656;2023-10-09T03:14:55;17.7;74.4
78438;SHT31;67736;51.978;5.656;2023-10-09T03:17:26;17.7;74.4
78438;SHT31;67736;51.978;5.656;2023-10-09T03:19:55;17.7;74.2
78438;SHT31;67736;51.978;5.656;2023-10-09T03:22:27;17.7;74.1
78438;SHT31;67736;51.978;5.656;2023-10-09T03:24:58;17.8;74.1
78438;SHT31;67736;51.978;5.656;2023-10-09T03:27:27;17.8;74.1
78438;SHT31;67736;51.978;5.656;2023-10-09T03:29:57;17.8;74.2
78438;SHT31;67736;51.978;5.656;2023-10-09T03:32:26;17.8;74.0
78438;SHT31;67736;51.978;5.656;2023-10-09T03:34:56;17.8;74.0
78438;SHT31;67736;51.978;5.656;2023-10-09T03:37:27;17.8;74.0
78438;SHT31;67736;51.978;5.656;2023-10-09T03:40:02;17.8;74.1
78438;SHT31;67736;51.978;5.656;2023-10-09T03:42:34;17.8;74.0
78438;SHT31;67736;51.978;5.656;2023-10-09T03:45:12;17.9;74.0
78438;SHT31;67736;51.978;5.656;2023-10-09T03:47:47;17.9;74.0
78438;SHT31;67736;51.978;5.656;2023-10-09T03:50:17;17.9;73.8
78438;SHT31;67736;51.978;5.656;2023-10-09T03:52:54;17.9;73.9
78438;SHT31;67736;51.978;5.656;2023-10-09T03:55:24;17.9;73.8
78438;SHT31;67736;51.978;5.656;2023-10-09T03:57:56;17.9;73.4
78438;SHT31;67736;51.978;5.656;2023-10-09T04:00:28;18.0;73.3
78438;SHT31;67736;51.978;5.656;2023-10-09T04:03:00;18.0;73.3
78438;SHT31;67736;51.978;5.656;2023-10-09T04:05:32;18.0;73.5
78438;SHT31;67736;51.978;5.656;2023-10-09T04:08:04;18.0;73.6
78438;SHT31;67736;51.978;5.656;2023-10-09T04:10:39;18.0;73.9
78438;SHT31;67736;51.978;5.656;2023-10-09T04:13:21;18.0;73.9
78438;SHT31;67736;51.978;5.656;2023-10-09T04:15:56;18.0;74.2
78438;SHT31;67736;51.978;5.656;2023-10-09T04:18:28;18.0;74.4
78438;SHT31;67736;51.978;5.656;2023-10-09T04:21:00;18.0;74.2
78438;SHT31;67736;51.978;5.656;2023-10-09T04:23:53;18.0;74.5
78438;SHT31;67736;51.978;5.656;2023-10-09T04:26:40;18.0;74.6
78438;SHT31;67736;51.978;5.656;2023-10-09T04:29:12;18.0;74.8
78438;SHT31;67736;51.978;5.656;2023-10-09T04:31:46;18.0;74.8
78438;SHT31;67736;51.978;5.656;2023-10-09T04:34:19;18.0;74.7
78438;SHT31;67736;51.978;5.656;2023-10-09T04:36:57;18.0;74.8
78438;SHT31;67736;51.978;5.656;2023-10-09T04:39:28;18.0;75.0
78438;SHT31;67736;51.978;5.656;2023-10-09T04:42:12;18.0;75.1
78438;SHT31;67736;51.978;5.656;2023-10-09T04:44:53;18.0;75.2
78438;SHT31;67736;51.978;5.656;2023-10-09T04:47:36;18.0;75.4
78438;SHT31;67736;51.978;5.656;2023-10-09T04:50:11;18.0;75.6
78438;SHT31;67736;51.978;5.656;2023-10-09T04:52:47;18.0;75.5
78438;SHT31;67736;51.978;5.656;2023-10-09T04:55:22;18.0;75.6
78438;SHT31;67736;51.978;5.656;2023-10-09T04:57:56;18.0;75.6
78438;SHT31;67736;51.978;5.656;2023-10-09T05:00:36;18.1;75.5
78438;SHT31;67736;51.978;5.656;2023-10-09T05:03:58;18.1;75.6
78438;SHT31;67736;51.978;5.656;2023-10-09T05:06:31;18.1;75.6
78438;SHT31;67736;51.978;5.656;2023-10-09T05:09:18;18.1;75.9
78438;SHT31;67736;51.978;5.656;2023-10-09T05:11:48;18.1;75.9
78438;SHT31;67736;51.978;5.656;2023-10-09T05:14:30;18.1;75.9
78438;SHT31;67736;51.978;5.656;2023-10-09T05:17:12;18.1;75.9
78438;SHT31;67736;51.978;5.656;2023-10-09T05:19:45;18.1;75.9
78438;SHT31;67736;51.978;5.656;2023-10-09T05:22:33;18.2;75.9
78438;SHT31;67736;51.978;5.656;2023-10-09T05:25:13;18.2;75.9
78438;SHT31;67736;51.978;5.656;2023-10-09T05:27:53;18.2;75.9
78438;SHT31;67736;51.978;5.656;2023-10-09T05:30:27;18.2;75.9
78438;SHT31;67736;51.978;5.656;2023-10-09T05:33:01;18.2;75.9
78438;SHT31;67736;51.978;5.656;2023-10-09T05:35:57;18.3;75.9
78438;SHT31;67736;51.978;5.656;2023-10-09T05:38:39;18.3;75.9
78438;SHT31;67736;51.978;5.656;2023-10-09T05:41:13;18.3;75.9
78438;SHT31;67736;51.978;5.656;2023-10-09T05:44:12;18.3;75.8
78438;SHT31;67736;51.978;5.656;2023-10-09T05:46:58;18.3;75.8
78438;SHT31;67736;51.978;5.656;2023-10-09T05:49:56;18.3;75.9
78438;SHT31;67736;51.978;5.656;2023-10-09T05:52:37;18.3;75.9
78438;SHT31;67736;51.978;5.656;2023-10-09T05:55:56;18.4;75.9
78438;SHT31;67736;51.978;5.656;2023-10-09T05:58:42;18.4;75.9
78438;SHT31;67736;51.978;5.656;2023-10-09T06:01:27;18.4;75.8
78438;SHT31;67736;51.978;5.656;2023-10-09T06:04:13;18.4;75.7
78438;SHT31;67736;51.978;5.656;2023-10-09T06:06:45;18.4;75.7
78438;SHT31;67736;51.978;5.656;2023-10-09T06:09:21;18.4;75.7
78438;SHT31;67736;51.978;5.656;2023-10-09T06:12:20;18.4;75.7
78438;SHT31;67736;51.978;5.656;2023-10-09T06:15:25;18.5;75.6
78438;SHT31;67736;51.978;5.656;2023-10-09T06:18:08;18.5;75.6
78438;SHT31;67736;51.978;5.656;2023-10-09T06:21:00;18.5;75.5
78438;SHT31;67736;51.978;5.656;2023-10-09T06:23:46;18.5;75.5
78438;SHT31;67736;51.978;5.656;2023-10-09T06:26:44;18.5;75.4
78438;SHT31;67736;51.978;5.656;2023-10-09T06:29:26;18.5;75.5
78438;SHT31;67736;51.978;5.656;2023-10-09T06:32:04;18.5;75.6
78438;SHT31;67736;51.978;5.656;2023-10-09T06:34:52;18.5;75.6
78438;SHT31;67736;51.978;5.656;2023-10-09T06:37:24;18.5;75.6
78438;SHT31;67736;51.978;5.656;2023-10-09T06:41:13;18.5;75.7
78438;SHT31;67736;51.978;5.656;2023-10-09T06:44:09;18.5;75.7
78438;SHT31;67736;51.978;5.656;2023-10-09T06:46:43;18.5;75.7
78438;SHT31;67736;51.978;5.656;2023-10-09T06:49:13;18.5;75.8
78438;SHT31;67736;51.978;5.656;2023-10-09T06:52:00;18.6;75.8
78438;SHT31;67736;51.978;5.656;2023-10-09T06:54:43;18.6;75.8
78438;SHT31;67736;51.978;5.656;2023-10-09T06:57:21;18.6;75.7
78438;SHT31;67736;51.978;5.656;2023-10-09T07:00:07;18.6;75.7
78438;SHT31;67736;51.978;5.656;2023-10-09T07:02:54;18.6;75.8
78438;SHT31;67736;51.978;5.656;2023-10-09T07:05:25;18.6;75.8
78438;SHT31;67736;51.978;5.656;2023-10-09T07:07:59;18.6;75.8
78438;SHT31;67736;51.978;5.656;2023-10-09T07:10:35;18.6;75.9
78438;SHT31;67736;51.978;5.656;2023-10-09T07:13:07;18.7;76.0
78438;SHT31;67736;51.978;5.656;2023-10-09T07:15:42;18.7;75.9
78438;SHT31;67736;51.978;5.656;2023-10-09T07:18:56;18.7;75.9
78438;SHT31;67736;51.978;5.656;2023-10-09T07:21:31;18.8;75.9
78438;SHT31;67736;51.978;5.656;2023-10-09T07:24:03;18.8;75.9
78438;SHT31;67736;51.978;5.656;2023-10-09T07:26:37;18.8;75.8
78438;SHT31;67736;51.978;5.656;2023-10-09T07:29:12;18.9;75.7
78438;SHT31;67736;51.978;5.656;2023-10-09T07:31:52;18.9;75.7
78438;SHT31;67736;51.978;5.656;2023-10-09T07:34:33;18.9;75.7
78438;SHT31;67736;51.978;5.656;2023-10-09T07:37:23;18.9;75.7
78438;SHT31;67736;51.978;5.656;2023-10-09T07:39:58;19.0;75.7
78438;SHT31;67736;51.978;5.656;2023-10-09T07:42:35;19.0;75.9
78438;SHT31;67736;51.978;5.656;2023-10-09T07:45:13;19.0;75.9
78438;SHT31;67736;51.978;5.656;2023-10-09T07:47:48;19.0;75.9
78438;SHT31;67736;51.978;5.656;2023-10-09T07:50:37;19.0;75.8
78438;SHT31;67736;51.978;5.656;2023-10-09T07:53:10;19.0;75.9
78438;SHT31;67736;51.978;5.656;2023-10-09T07:55:52;19.1;76.1
78438;SHT31;67736;51.978;5.656;2023-10-09T07:58:26;19.1;76.1
78438;SHT31;67736;51.978;5.656;2023-10-09T08:00:57;19.1;76.1
78438;SHT31;67736;51.978;5.656;2023-10-09T08:03:35;19.1;76.2
78438;SHT31;67736;51.978;5.656;2023-10-09T08:06:05;19.2;76.3
78438;SHT31;67736;51.978;5.656;2023-10-09T08:08:43;19.2;76.2
78438;SHT31;67736;51.978;5.656;2023-10-09T08:11:18;19.2;76.3
78438;SHT31;67736;51.978;5.656;2023-10-09T08:14:04;19.3;76.1
78438;SHT31;67736;51.978;5.656;2023-10-09T08:16:42;19.3;76.2
78438;SHT31;67736;51.978;5.656;2023-10-09T08:19:12;19.3;76.1
78438;SHT31;67736;51.978;5.656;2023-10-09T08:21:59;19.4;75.9
78438;SHT31;67736;51.978;5.656;2023-10-09T08:24:52;19.4;75.9
78438;SHT31;67736;51.978;5.656;2023-10-09T08:27:23;19.5;75.7
78438;SHT31;67736;51.978;5.656;2023-10-09T08:30:12;19.5;75.8
78438;SHT31;67736;51.978;5.656;2023-10-09T08:32:48;19.6;75.6
78438;SHT31;67736;51.978;5.656;2023-10-09T08:35:28;19.7;75.4
78438;SHT31;67736;51.978;5.656;2023-10-09T08:38:01;19.7;75.5
78438;SHT31;67736;51.978;5.656;2023-10-09T08:40:36;19.8;75.1
78438;SHT31;67736;51.978;5.656;2023-10-09T08:43:14;19.9;75.1
78438;SHT31;67736;51.978;5.656;2023-10-09T08:45:47;19.9;74.8
78438;SHT31;67736;51.978;5.656;2023-10-09T08:48:21;20.0;74.6
78438;SHT31;67736;51.978;5.656;2023-10-09T08:50:57;20.0;74.4
78438;SHT31;67736;51.978;5.656;2023-10-09T08:53:27;20.1;74.0
78438;SHT31;67736;51.978;5.656;2023-10-09T08:55:59;20.1;74.1
78438;SHT31;67736;51.978;5.656;2023-10-09T08:58:30;20.2;74.4
78438;SHT31;67736;51.978;5.656;2023-10-09T09:01:04;20.2;74.1
78438;SHT31;67736;51.978;5.656;2023-10-09T09:03:40;20.3;73.5
78438;SHT31;67736;51.978;5.656;2023-10-09T09:06:13;20.3;73.4
78438;SHT31;67736;51.978;5.656;2023-10-09T09:08:43;20.3;73.1
78438;SHT31;67736;51.978;5.656;2023-10-09T09:11:15;20.4;73.1
78438;SHT31;67736;51.978;5.656;2023-10-09T09:14:03;20.4;73.1
78438;SHT31;67736;51.978;5.656;2023-10-09T09:16:35;20.4;73.1
78438;SHT31;67736;51.978;5.656;2023-10-09T09:19:07;20.5;72.7
78438;SHT31;67736;51.978;5.656;2023-10-09T09:21:49;20.5;72.4
78438;SHT31;67736;51.978;5.656;2023-10-09T09:24:22;20.6;72.4
78438;SHT31;67736;51.978;5.656;2023-10-09T09:27:01;20.6;71.9
78438;SHT31;67736;51.978;5.656;2023-10-09T09:29:41;20.7;71.8
78438;SHT31;67736;51.978;5.656;2023-10-09T09:32:16;20.7;71.8
78438;SHT31;67736;51.978;5.656;2023-10-09T09:34:48;20.7;72.2
78438;SHT31;67736;51.978;5.656;2023-10-09T09:37:23;20.8;71.9
78438;SHT31;67736;51.978;5.656;2023-10-09T09:39:57;20.9;72.2
78438;SHT31;67736;51.978;5.656;2023-10-09T09:42:29;20.9;71.9
78438;SHT31;67736;51.978;5.656;2023-10-09T09:45:03;21.0;72.2
78438;SHT31;67736;51.978;5.656;2023-10-09T09:47:34;21.0;71.9
78438;SHT31;67736;51.978;5.656;2023-10-09T09:50:06;21.1;71.3
78438;SHT31;67736;51.978;5.656;2023-10-09T09:52:47;21.1;71.1
78438;SHT31;67736;51.978;5.656;2023-10-09T09:55:25;21.2;69.9
78438;SHT31;67736;51.978;5.656;2023-10-09T09:57:58;21.3;70.1
78438;SHT31;67736;51.978;5.656;2023-10-09T10:00:31;21.3;69.8
78438;SHT31;67736;51.978;5.656;2023-10-09T10:03:12;21.4;68.6
78438;SHT31;67736;51.978;5.656;2023-10-09T10:05:46;21.4;68.8
78438;SHT31;67736;51.978;5.656;2023-10-09T10:08:19;21.4;68.5
78438;SHT31;67736;51.978;5.656;2023-10-09T10:10:49;21.5;68.8
78438;SHT31;67736;51.978;5.656;2023-10-09T10:13:56;21.5;68.5
78438;SHT31;67736;51.978;5.656;2023-10-09T10:16:28;21.5;68.4
78438;SHT31;67736;51.978;5.656;2023-10-09T10:19:04;21.6;68.3
78438;SHT31;67736;51.978;5.656;2023-10-09T10:21:42;21.6;68.1
78438;SHT31;67736;51.978;5.656;2023-10-09T10:24:44;21.6;68.2
78438;SHT31;67736;51.978;5.656;2023-10-09T10:27:24;21.7;67.8
78438;SHT31;67736;51.978;5.656;2023-10-09T10:30:28;21.7;67.2
78438;SHT31;67736;51.978;5.656;2023-10-09T10:33:04;21.8;67.2
78438;SHT31;67736;51.978;5.656;2023-10-09T10:35:41;21.8;67.2
78438;SHT31;67736;51.978;5.656;2023-10-09T10:38:24;21.8;67.1
78438;SHT31;67736;51.978;5.656;2023-10-09T10:41:09;21.9;67.1
78438;SHT31;67736;51.978;5.656;2023-10-09T10:43:42;21.9;67.1
78438;SHT31;67736;51.978;5.656;2023-10-09T10:46:28;21.9;67.3
78438;SHT31;67736;51.978;5.656;2023-10-09T10:49:07;21.9;66.9
78438;SHT31;67736;51.978;5.656;2023-10-09T10:51:48;22.0;66.9
78438;SHT31;67736;51.978;5.656;2023-10-09T10:54:25;22.0;67.1
78438;SHT31;67736;51.978;5.656;2023-10-09T10:57:18;22.0;67.3
78438;SHT31;67736;51.978;5.656;2023-10-09T10:59:54;22.1;67.1
78438;SHT31;67736;51.978;5.656;2023-10-09T11:02:32;22.1;66.8
78438;SHT31;67736;51.978;5.656;2023-10-09T11:05:05;22.2;66.6
78438;SHT31;67736;51.978;5.656;2023-10-09T11:07:49;22.2;66.1
78438;SHT31;67736;51.978;5.656;2023-10-09T11:10:24;22.3;66.4
78438;SHT31;67736;51.978;5.656;2023-10-09T11:13:00;22.3;65.6
78438;SHT31;67736;51.978;5.656;2023-10-09T11:16:20;22.4;65.9
78438;SHT31;67736;51.978;5.656;2023-10-09T11:19:03;22.4;65.7
78438;SHT31;67736;51.978;5.656;2023-10-09T11:21:38;22.4;65.6
78438;SHT31;67736;51.978;5.656;2023-10-09T11:24:11;22.5;65.4
78438;SHT31;67736;51.978;5.656;2023-10-09T11:27:01;22.5;65.3
78438;SHT31;67736;51.978;5.656;2023-10-09T11:29:34;22.5;65.2
78438;SHT31;67736;51.978;5.656;2023-10-09T11:32:22;22.6;65.2
78438;SHT31;67736;51.978;5.656;2023-10-09T11:35:10;22.6;65.2
78438;SHT31;67736;51.978;5.656;2023-10-09T11:37:42;22.7;65.5
78438;SHT31;67736;51.978;5.656;2023-10-09T11:40:30;22.7;65.1
78438;SHT31;67736;51.978;5.656;2023-10-09T11:43:07;22.8;64.2
78438;SHT31;67736;51.978;5.656;2023-10-09T11:45:41;22.8;63.7
78438;SHT31;67736;51.978;5.656;2023-10-09T11:48:18;22.8;63.2
78438;SHT31;67736;51.978;5.656;2023-10-09T11:50:53;22.8;62.9
78438;SHT31;67736;51.978;5.656;2023-10-09T11:53:28;22.8;63.1
78438;SHT31;67736;51.978;5.656;2023-10-09T11:56:03;22.9;63.3
78438;SHT31;67736;51.978;5.656;2023-10-09T11:58:39;22.9;62.5
78438;SHT31;67736;51.978;5.656;2023-10-09T12:01:13;22.9;62.3
78438;SHT31;67736;51.978;5.656;2023-10-09T12:03:45;22.9;62.3
78438;SHT31;67736;51.978;5.656;2023-10-09T12:06:18;22.9;62.5
78438;SHT31;67736;51.978;5.656;2023-10-09T12:08:49;22.9;62.1
78438;SHT31;67736;51.978;5.656;2023-10-09T12:11:21;23.0;62.0
78438;SHT31;67736;51.978;5.656;2023-10-09T12:13:56;23.0;62.4
78438;SHT31;67736;51.978;5.656;2023-10-09T12:16:28;23.0;61.8
78438;SHT31;67736;51.978;5.656;2023-10-09T12:19:00;23.0;61.2
78438;SHT31;67736;51.978;5.656;2023-10-09T12:21:30;23.1;61.0
78438;SHT31;67736;51.978;5.656;2023-10-09T12:23:59;23.1;61.4
78438;SHT31;67736;51.978;5.656;2023-10-09T12:26:36;23.1;61.2
78438;SHT31;67736;51.978;5.656;2023-10-09T12:29:06;23.1;61.0
78438;SHT31;67736;51.978;5.656;2023-10-09T12:31:38;23.1;61.7
78438;SHT31;67736;51.978;5.656;2023-10-09T12:34:13;23.1;61.1
78438;SHT31;67736;51.978;5.656;2023-10-09T12:36:44;23.1;61.3
78438;SHT31;67736;51.978;5.656;2023-10-09T12:39:14;23.1;60.8
78438;SHT31;67736;51.978;5.656;2023-10-09T12:41:46;23.1;60.8
78438;SHT31;67736;51.978;5.656;2023-10-09T12:44:18;23.1;60.8
78438;SHT31;67736;51.978;5.656;2023-10-09T12:46:48;23.1;60.8
78438;SHT31;67736;51.978;5.656;2023-10-09T12:49:24;23.1;61.2
78438;SHT31;67736;51.978;5.656;2023-10-09T12:51:54;23.1;61.4
78438;SHT31;67736;51.978;5.656;2023-10-09T12:54:26;23.1;61.4
78438;SHT31;67736;51.978;5.656;2023-10-09T12:56:56;23.1;61.5
78438;SHT31;67736;51.978;5.656;2023-10-09T12:59:26;23.1;61.6
78438;SHT31;67736;51.978;5.656;2023-10-09T13:01:56;23.1;61.4
78438;SHT31;67736;51.978;5.656;2023-10-09T13:04:26;23.1;61.5
78438;SHT31;67736;51.978;5.656;2023-10-09T13:06:59;23.1;61.8
78438;SHT31;67736;51.978;5.656;2023-10-09T13:09:31;23.1;61.9
78438;SHT31;67736;51.978;5.656;2023-10-09T13:12:07;23.1;61.4
78438;SHT31;67736;51.978;5.656;2023-10-09T13:14:39;23.1;62.0
78438;SHT31;67736;51.978;5.656;2023-10-09T13:17:09;23.1;61.5
78438;SHT31;67736;51.978;5.656;2023-10-09T13:19:41;23.1;61.5
78438;SHT31;67736;51.978;5.656;2023-10-09T13:22:11;23.1;61.6
78438;SHT31;67736;51.978;5.656;2023-10-09T13:24:42;23.1;61.4
78438;SHT31;67736;51.978;5.656;2023-10-09T13:27:15;23.1;61.5
78438;SHT31;67736;51.978;5.656;2023-10-09T13:29:48;23.1;62.1
78438;SHT31;67736;51.978;5.656;2023-10-09T13:32:19;23.1;62.4
78438;SHT31;67736;51.978;5.656;2023-10-09T13:34:49;23.1;62.0
78438;SHT31;67736;51.978;5.656;2023-10-09T13:37:21;23.1;62.0
78438;SHT31;67736;51.978;5.656;2023-10-09T13:39:50;23.1;61.8
78438;SHT31;67736;51.978;5.656;2023-10-09T13:42:23;23.1;61.9
78438;SHT31;67736;51.978;5.656;2023-10-09T13:44:54;23.1;61.9
78438;SHT31;67736;51.978;5.656;2023-10-09T13:47:23;23.1;62.2
78438;SHT31;67736;51.978;5.656;2023-10-09T13:49:58;23.1;62.0
78438;SHT31;67736;51.978;5.656;2023-10-09T13:52:27;23.1;62.0
78438;SHT31;67736;51.978;5.656;2023-10-09T13:54:58;23.1;62.3
78438;SHT31;67736;51.978;5.656;2023-10-09T13:57:32;23.1;62.2
78438;SHT31;67736;51.978;5.656;2023-10-09T14:00:02;23.1;61.8
78438;SHT31;67736;51.978;5.656;2023-10-09T14:02:37;23.1;61.8
78438;SHT31;67736;51.978;5.656;2023-10-09T14:05:07;23.1;62.4
78438;SHT31;67736;51.978;5.656;2023-10-09T14:07:37;23.1;62.3
78438;SHT31;67736;51.978;5.656;2023-10-09T14:10:08;23.1;62.1
78438;SHT31;67736;51.978;5.656;2023-10-09T14:12:43;23.1;62.3
78438;SHT31;67736;51.978;5.656;2023-10-09T14:15:15;23.1;62.0
78438;SHT31;67736;51.978;5.656;2023-10-09T14:17:46;23.1;62.1
78438;SHT31;67736;51.978;5.656;2023-10-09T14:20:20;23.1;62.3
78438;SHT31;67736;51.978;5.656;2023-10-09T14:23:00;23.1;62.5
78438;SHT31;67736;51.978;5.656;2023-10-09T14:25:35;23.0;62.5
78438;SHT31;67736;51.978;5.656;2023-10-09T14:28:07;23.0;62.6
78438;SHT31;67736;51.978;5.656;2023-10-09T14:30:38;23.0;62.7
78438;SHT31;67736;51.978;5.656;2023-10-09T14:33:11;23.0;62.7
78438;SHT31;67736;51.978;5.656;2023-10-09T14:35:42;23.0;62.7
78438;SHT31;67736;51.978;5.656;2023-10-09T14:38:13;23.0;62.8
78438;SHT31;67736;51.978;5.656;2023-10-09T14:40:43;23.0;62.8
78438;SHT31;67736;51.978;5.656;2023-10-09T14:43:14;23.0;62.8
78438;SHT31;67736;51.978;5.656;2023-10-09T14:45:49;23.0;62.4
78438;SHT31;67736;51.978;5.656;2023-10-09T14:48:21;23.0;62.2
78438;SHT31;67736;51.978;5.656;2023-10-09T14:50:53;22.9;62.5
78438;SHT31;67736;51.978;5.656;2023-10-09T14:53:28;22.9;62.3
78438;SHT31;67736;51.978;5.656;2023-10-09T14:55:58;22.9;62.4
78438;SHT31;67736;51.978;5.656;2023-10-09T14:58:28;22.9;62.6
78438;SHT31;67736;51.978;5.656;2023-10-09T15:01:09;22.9;62.8
78438;SHT31;67736;51.978;5.656;2023-10-09T15:03:45;22.9;63.1
78438;SHT31;67736;51.978;5.656;2023-10-09T15:06:16;22.9;63.2
78438;SHT31;67736;51.978;5.656;2023-10-09T15:08:46;22.9;63.3
78438;SHT31;67736;51.978;5.656;2023-10-09T15:11:16;22.9;62.8
78438;SHT31;67736;51.978;5.656;2023-10-09T15:13:50;22.9;63.0
78438;SHT31;67736;51.978;5.656;2023-10-09T15:16:21;22.9;62.7
78438;SHT31;67736;51.978;5.656;2023-10-09T15:18:55;22.9;62.5
78438;SHT31;67736;51.978;5.656;2023-10-09T15:21:25;22.9;63.0
78438;SHT31;67736;51.978;5.656;2023-10-09T15:23:57;22.9;62.8
78438;SHT31;67736;51.978;5.656;2023-10-09T15:26:26;22.9;62.8
78438;SHT31;67736;51.978;5.656;2023-10-09T15:29:02;22.9;62.9
78438;SHT31;67736;51.978;5.656;2023-10-09T15:31:34;22.8;63.4
78438;SHT31;67736;51.978;5.656;2023-10-09T15:34:03;22.8;63.3
78438;SHT31;67736;51.978;5.656;2023-10-09T15:36:36;22.8;63.3
78438;SHT31;67736;51.978;5.656;2023-10-09T15:39:07;22.8;63.2
78438;SHT31;67736;51.978;5.656;2023-10-09T15:41:39;22.8;63.1
78438;SHT31;67736;51.978;5.656;2023-10-09T15:44:09;22.8;63.3
78438;SHT31;67736;51.978;5.656;2023-10-09T15:46:41;22.7;63.2
78438;SHT31;67736;51.978;5.656;2023-10-09T15:49:12;22.7;63.5
78438;SHT31;67736;51.978;5.656;2023-10-09T15:51:42;22.7;63.7
78438;SHT31;67736;51.978;5.656;2023-10-09T15:54:14;22.6;63.5
78438;SHT31;67736;51.978;5.656;2023-10-09T15:56:46;22.6;63.9
78438;SHT31;67736;51.978;5.656;2023-10-09T15:59:16;22.6;64.0
78438;SHT31;67736;51.978;5.656;2023-10-09T16:01:46;22.6;64.4
78438;SHT31;67736;51.978;5.656;2023-10-09T16:04:15;22.5;64.6
78438;SHT31;67736;51.978;5.656;2023-10-09T16:06:45;22.5;64.6
78438;SHT31;67736;51.978;5.656;2023-10-09T16:09:14;22.5;64.7
78438;SHT31;67736;51.978;5.656;2023-10-09T16:11:48;22.5;64.6
78438;SHT31;67736;51.978;5.656;2023-10-09T16:14:18;22.4;64.8
78438;SHT31;67736;51.978;5.656;2023-10-09T16:16:48;22.4;65.0
78438;SHT31;67736;51.978;5.656;2023-10-09T16:19:20;22.4;64.9
78438;SHT31;67736;51.978;5.656;2023-10-09T16:21:50;22.4;64.9
78438;SHT31;67736;51.978;5.656;2023-10-09T16:24:20;22.4;64.9
78438;SHT31;67736;51.978;5.656;2023-10-09T16:26:51;22.3;65.1
78438;SHT31;67736;51.978;5.656;2023-10-09T16:29:22;22.3;65.2
78438;SHT31;67736;51.978;5.656;2023-10-09T16:31:52;22.3;65.1
78438;SHT31;67736;51.978;5.656;2023-10-09T16:34:22;22.3;65.3
78438;SHT31;67736;51.978;5.656;2023-10-09T16:36:54;22.2;65.3
78438;SHT31;67736;51.978;5.656;2023-10-09T16:39:24;22.2;65.5
78438;SHT31;67736;51.978;5.656;2023-10-09T16:41:58;22.2;65.4
78438;SHT31;67736;51.978;5.656;2023-10-09T16:44:28;22.2;65.6
78438;SHT31;67736;51.978;5.656;2023-10-09T16:46:58;22.2;65.7
78438;SHT31;67736;51.978;5.656;2023-10-09T16:49:28;22.2;65.6
78438;SHT31;67736;51.978;5.656;2023-10-09T16:51:58;22.1;65.5
78438;SHT31;67736;51.978;5.656;2023-10-09T16:54:30;22.1;65.6
78438;SHT31;67736;51.978;5.656;2023-10-09T16:57:04;22.1;65.7
78438;SHT31;67736;51.978;5.656;2023-10-09T16:59:36;22.0;65.8